Time;durP1;ratioP1;P1;durP2;ratioP2;P2;SDS_P1;SDS_P2;PMS_P1;PMS_P2;Temp;Humidity;BMP_temperature;BMP_pressure;BME280_temperature;BME280_humidity;BME280_pressure;Samples;Min_cycle;Max_cycle;Signal;HPM_P1;HPM_P2
2024/03/14 05:37:04;;;;;;;2.20;2.00;;;7.30;99.90;;;;;;4901438;29;20263;-87
2024/03/14 05:43:35;;;;;;;2.90;2.00;;;7.00;99.90;;;;;;4900709;29;20605;-86
2024/03/14 05:56:54;;;;;;;2.20;2.00;;;7.40;99.90;;;;;;4930663;29;20684;-85
2024/03/14 05:59:21;;;;;;;2.10;1.88;;;7.30;99.90;;;;;;4918508;29;20197;-85
2024/03/14 06:01:48;;;;;;;1.95;1.67;;;7.30;99.90;;;;;;4886455;29;20218;-85
2024/03/14 06:04:47;;;;;;;3.30;1.85;;;7.20;99.90;;;;;;4917763;29;20242;-85
2024/03/14 06:11:44;;;;;;;2.70;1.92;;;7.20;99.90;;;;;;4918510;29;20264;-85
2024/03/14 06:21:22;;;;;;;2.20;1.80;;;7.70;99.90;;;;;;4904105;29;20194;-87
2024/03/14 06:23:50;;;;;;;2.53;1.42;;;7.70;99.90;;;;;;4897389;29;20208;-92
2024/03/14 06:26:17;;;;;;;2.35;1.60;;;7.70;99.90;;;;;;4883918;29;20235;-91
2024/03/14 06:28:45;;;;;;;1.70;1.60;;;7.60;99.90;;;;;;4901625;29;20201;-86
2024/03/14 06:31:14;;;;;;;3.40;1.55;;;7.80;99.90;;;;;;4900713;29;20203;-86
2024/03/14 06:37:04;;;;;;;3.67;1.60;;;7.70;99.90;;;;;;4918560;29;20706;-86
2024/03/14 06:39:31;;;;;;;2.78;1.70;;;7.80;99.90;;;;;;4873264;29;20291;-88
2024/03/14 06:41:58;;;;;;;3.08;1.60;;;7.90;99.90;;;;;;4882947;29;20653;-88
2024/03/14 06:44:25;;;;;;;1.85;1.40;;;8.00;99.90;;;;;;4885790;29;20203;-87
2024/03/14 06:46:53;;;;;;;2.83;1.77;;;8.00;99.90;;;;;;4889749;29;20654;-88
2024/03/14 07:09:36;;;;;;;1.80;1.60;;;8.50;99.90;;;;;;4898745;29;20264;-85
2024/03/14 07:18:57;;;;;;;2.22;1.77;;;8.80;99.90;;;;;;4879693;29;20192;-88
2024/03/14 07:24:53;;;;;;;2.15;1.60;;;9.90;99.90;;;;;;4879848;29;20674;-85
2024/03/14 07:30:55;;;;;;;1.92;1.73;;;10.30;99.50;;;;;;4917104;29;20574;-84
2024/03/14 07:34:07;;;;;;;1.88;1.60;;;10.50;98.40;;;;;;4899692;29;20753;-83
2024/03/14 07:36:36;;;;;;;2.00;1.70;;;10.40;97.50;;;;;;4903800;29;20209;-83
2024/03/14 07:39:04;;;;;;;2.45;1.67;;;10.20;98.40;;;;;;4901632;29;20214;-82
2024/03/14 07:41:31;;;;;;;1.70;1.60;;;10.20;98.40;;;;;;4896148;29;20207;-83
2024/03/14 07:43:58;;;;;;;1.73;1.50;;;10.20;98.90;;;;;;4900341;29;20214;-84
2024/03/14 07:46:25;;;;;;;2.00;1.63;;;10.00;98.60;;;;;;4900748;29;20620;-84
2024/03/14 07:49:52;;;;;;;1.80;1.70;;;10.20;99.50;;;;;;4901180;29;20523;-84
2024/03/14 08:02:07;;;;;;;1.73;1.60;;;11.10;96.90;;;;;;4917267;29;20651;-83
2024/03/14 08:11:28;;;;;;;1.70;1.60;;;11.20;96.80;;;;;;4918434;29;20282;-84
2024/03/14 08:14:00;;;;;;;1.55;1.38;;;11.30;97.60;;;;;;4886073;29;20257;-84
2024/03/14 08:16:28;;;;;;;2.15;1.60;;;11.50;96.30;;;;;;4903589;29;20556;-84
2024/03/14 08:18:56;;;;;;;1.73;1.50;;;11.80;96.10;;;;;;4904504;29;20265;-84
2024/03/14 08:21:28;;;;;;;1.58;1.40;;;11.70;95.60;;;;;;4917284;29;20591;-84
2024/03/14 08:23:58;;;;;;;1.50;1.40;;;12.00;94.30;;;;;;4915283;29;20210;-84
2024/03/14 08:26:25;;;;;;;2.00;1.60;;;11.90;95.50;;;;;;4915233;29;20286;-84
2024/03/14 08:28:54;;;;;;;3.78;1.80;;;12.10;94.80;;;;;;4886318;29;20207;-88
2024/03/14 08:31:22;;;;;;;2.10;1.63;;;12.30;93.60;;;;;;4898520;29;20211;-84
2024/03/14 08:33:50;;;;;;;3.92;1.73;;;12.40;93.20;;;;;;4896185;29;20210;-85
2024/03/14 08:36:17;;;;;;;2.13;1.90;;;12.50;92.60;;;;;;4916822;29;20288;-84
2024/03/14 08:38:44;;;;;;;2.85;1.90;;;12.50;93.30;;;;;;4921311;29;20229;-84
2024/03/14 08:41:13;;;;;;;2.40;1.70;;;12.50;92.90;;;;;;4916784;29;20211;-85
2024/03/14 08:43:40;;;;;;;1.58;1.40;;;12.70;92.70;;;;;;4915661;29;20699;-85
2024/03/14 08:46:07;;;;;;;1.95;1.50;;;12.70;92.10;;;;;;4899343;29;20299;-84
2024/03/14 08:48:34;;;;;;;1.20;1.10;;;12.60;92.80;;;;;;4898975;29;20211;-89
2024/03/14 08:51:01;;;;;;;1.25;1.15;;;12.40;91.60;;;;;;4913794;29;20623;-84
2024/03/14 08:53:36;;;;;;;1.40;1.05;;;12.50;91.50;;;;;;4908008;29;20234;-86
2024/03/14 08:56:07;;;;;;;1.50;1.10;;;12.80;91.70;;;;;;4903691;29;20609;-85
2024/03/14 08:58:35;;;;;;;1.65;1.10;;;13.10;91.20;;;;;;4904753;29;20203;-84
2024/03/14 09:01:03;;;;;;;2.85;1.10;;;13.10;90.70;;;;;;4910824;29;20602;-84
2024/03/14 09:03:30;;;;;;;1.58;1.45;;;13.00;90.70;;;;;;4917577;29;20215;-84
2024/03/14 09:05:57;;;;;;;1.25;1.15;;;12.80;91.40;;;;;;4901988;29;20716;-84
2024/03/14 09:08:25;;;;;;;1.55;1.45;;;12.90;92.60;;;;;;4913668;29;20551;-84
2024/03/14 09:10:53;;;;;;;1.63;1.40;;;13.50;91.10;;;;;;4917270;29;20199;-85
2024/03/14 09:13:20;;;;;;;1.20;1.10;;;14.00;86.70;;;;;;4918683;29;20615;-85
2024/03/14 09:15:50;;;;;;;1.67;1.10;;;14.60;81.60;;;;;;4905991;29;20247;-85
2024/03/14 09:18:17;;;;;;;2.13;1.20;;;14.90;77.20;;;;;;4885474;29;20202;-84
2024/03/14 09:20:48;;;;;;;1.13;1.00;;;14.90;77.20;;;;;;4912755;29;20569;-84
2024/03/14 09:23:19;;;;;;;1.50;1.05;;;14.90;69.80;;;;;;4900876;29;20306;-85
2024/03/14 09:25:46;;;;;;;2.20;1.27;;;15.10;61.50;;;;;;4899391;29;20246;-84
2024/03/14 09:28:13;;;;;;;1.02;1.00;;;15.30;63.50;;;;;;4900479;29;20198;-84
2024/03/14 09:30:42;;;;;;;1.48;1.05;;;15.90;54.70;;;;;;4912155;29;20214;-85
2024/03/14 09:33:08;;;;;;;1.20;1.10;;;15.80;47.50;;;;;;4895848;29;20198;-84
2024/03/14 09:35:44;;;;;;;1.20;1.15;;;15.80;49.00;;;;;;4894883;29;20665;-84
2024/03/14 09:38:12;;;;;;;1.40;0.98;;;15.40;51.70;;;;;;4899148;29;20203;-84
2024/03/14 09:40:39;;;;;;;2.55;1.00;;;16.00;49.80;;;;;;4899851;29;20259;-86
2024/03/14 09:43:07;;;;;;;1.23;1.02;;;17.10;43.10;;;;;;4899608;29;20209;-86
2024/03/14 09:45:35;;;;;;;1.10;1.00;;;17.30;40.20;;;;;;4883778;29;20234;-84
2024/03/14 09:48:02;;;;;;;1.15;1.08;;;17.80;34.50;;;;;;4895594;29;20205;-84
2024/03/14 09:50:29;;;;;;;1.20;1.10;;;17.70;36.10;;;;;;4901644;29;20211;-83
2024/03/14 09:52:57;;;;;;;1.98;1.00;;;17.90;34.20;;;;;;4903036;29;20202;-85
2024/03/14 09:55:24;;;;;;;1.30;0.93;;;17.90;30.80;;;;;;4899452;29;20198;-82
2024/03/14 09:57:53;;;;;;;1.40;1.30;;;18.00;30.40;;;;;;4909540;29;20222;-80
2024/03/14 10:00:20;;;;;;;1.20;1.13;;;18.40;30.70;;;;;;4894326;29;20226;-80
2024/03/14 10:02:48;;;;;;;1.38;1.10;;;18.10;30.50;;;;;;4906151;29;20229;-80
2024/03/14 10:05:16;;;;;;;1.92;1.23;;;18.40;30.70;;;;;;4914300;29;20222;-82
2024/03/14 10:07:45;;;;;;;2.75;1.30;;;18.70;31.00;;;;;;4881926;29;20254;-81
2024/03/14 10:10:14;;;;;;;1.05;1.00;;;19.40;25.80;;;;;;4907576;29;20564;-83
2024/03/14 10:12:43;;;;;;;2.40;2.10;;;19.60;25.30;;;;;;4891428;29;20600;-83
2024/03/14 10:15:13;;;;;;;1.48;1.20;;;19.20;25.20;;;;;;4898212;29;20202;-82
2024/03/14 10:17:40;;;;;;;1.83;1.42;;;19.60;28.70;;;;;;4893629;29;20666;-83
2024/03/14 10:20:12;;;;;;;1.33;1.10;;;20.70;22.40;;;;;;4907474;29;20199;-83
2024/03/14 10:22:39;;;;;;;6.45;1.42;;;21.30;18.70;;;;;;4899154;29;20214;-84
2024/03/14 10:25:06;;;;;;;1.20;1.10;;;20.30;18.00;;;;;;4894398;29;20195;-83
2024/03/14 10:27:34;;;;;;;1.23;1.00;;;20.20;19.40;;;;;;4885069;29;20225;-81
2024/03/14 10:30:01;;;;;;;1.10;1.00;;;19.50;18.30;;;;;;4897044;29;20199;-84
2024/03/14 10:32:28;;;;;;;2.10;0.98;;;19.60;19.70;;;;;;4911310;29;20198;-83
2024/03/14 10:34:55;;;;;;;2.65;1.08;;;19.60;20.50;;;;;;4897964;29;20217;-85
2024/03/14 10:37:22;;;;;;;1.05;1.02;;;19.20;20.00;;;;;;4913179;29;20206;-79
2024/03/14 10:39:50;;;;;;;1.50;1.10;;;19.20;23.80;;;;;;4881849;29;20394;-79
2024/03/14 10:42:17;;;;;;;1.02;1.02;;;19.50;22.50;;;;;;4908913;29;20198;-81
2024/03/14 10:44:44;;;;;;;0.80;0.80;;;18.90;25.40;;;;;;4912312;29;20198;-82
2024/03/14 10:47:11;;;;;;;1.52;1.02;;;19.30;22.30;;;;;;4911208;29;20229;-83
2024/03/14 10:49:38;;;;;;;1.30;1.20;;;20.30;19.00;;;;;;4878640;29;20255;-79
2024/03/14 10:52:10;;;;;;;1.23;1.00;;;20.30;18.60;;;;;;4896125;29;20663;-83
2024/03/14 10:54:37;;;;;;;0.90;0.90;;;19.70;20.00;;;;;;4910858;29;20693;-82
2024/03/14 10:57:05;;;;;;;0.93;0.93;;;18.60;22.20;;;;;;4913996;29;20239;-81
2024/03/14 10:59:32;;;;;;;0.93;0.85;;;18.30;26.20;;;;;;4882377;29;20242;-81
2024/03/14 11:01:59;;;;;;;1.02;0.88;;;18.30;25.30;;;;;;4894810;29;20198;-80
2024/03/14 11:04:28;;;;;;;0.80;0.80;;;18.30;30.60;;;;;;4912606;29;20198;-81
2024/03/14 11:06:55;;;;;;;1.02;1.02;;;18.50;23.00;;;;;;4893464;29;20226;-82
2024/03/14 11:09:22;;;;;;;1.35;1.13;;;19.30;22.30;;;;;;4912006;29;20210;-80
2024/03/14 11:11:51;;;;;;;1.25;0.70;;;19.30;19.80;;;;;;4874885;29;20215;-84
2024/03/14 11:14:18;;;;;;;1.15;1.05;;;19.40;20.00;;;;;;4912789;29;20329;-83
2024/03/14 11:16:45;;;;;;;2.15;0.90;;;18.80;22.60;;;;;;4908335;29;20234;-79
2024/03/14 11:19:14;;;;;;;0.95;0.90;;;18.20;22.80;;;;;;4908273;29;20233;-88
2024/03/14 11:21:42;;;;;;;1.38;0.90;;;18.30;25.00;;;;;;4902293;29;20657;-86
2024/03/14 11:24:09;;;;;;;1.27;1.00;;;18.00;24.50;;;;;;4910809;29;20202;-82
2024/03/14 11:26:36;;;;;;;0.63;0.63;;;17.70;26.20;;;;;;4907958;29;20227;-82
2024/03/14 11:29:04;;;;;;;0.93;0.80;;;17.50;26.70;;;;;;4880712;29;20208;-82
2024/03/14 11:31:38;;;;;;;1.42;0.88;;;17.60;26.20;;;;;;4883724;29;20206;-83
2024/03/14 11:34:32;;;;;;;0.70;0.65;;;17.90;24.80;;;;;;4882260;29;20254;-86
2024/03/14 11:36:59;;;;;;;1.23;0.93;;;18.00;25.60;;;;;;4909603;29;20212;-86
2024/03/14 11:39:27;;;;;;;1.52;0.85;;;17.80;25.50;;;;;;4914213;29;20201;-88
2024/03/14 11:42:11;;;;;;;2.35;0.93;;;17.30;27.50;;;;;;4881623;29;20290;-83
2024/03/14 11:44:39;;;;;;;1.42;1.15;;;17.00;29.60;;;;;;4907124;29;20253;-84
2024/03/14 11:47:06;;;;;;;1.50;1.08;;;16.90;29.50;;;;;;4900082;29;20256;-83
2024/03/14 11:49:35;;;;;;;2.58;0.90;;;16.90;29.50;;;;;;4893827;29;20243;-83
2024/03/14 11:52:02;;;;;;;1.92;1.00;;;17.10;27.60;;;;;;4918451;29;20199;-82
2024/03/14 11:54:31;;;;;;;2.53;1.00;;;17.30;26.40;;;;;;4914339;29;20269;-84
2024/03/14 11:57:00;;;;;;;2.33;0.90;;;17.20;27.30;;;;;;5106252;23;20640;-84
2024/03/14 11:59:27;;;;;;;2.33;1.10;;;17.10;26.90;;;;;;4889227;29;20206;-85
2024/03/14 12:01:57;;;;;;;1.17;1.00;;;16.90;27.50;;;;;;4926413;29;20198;-85
2024/03/14 12:04:24;;;;;;;1.48;0.90;;;16.90;29.50;;;;;;4904936;29;20203;-84
2024/03/14 12:06:51;;;;;;;1.42;1.02;;;17.00;26.80;;;;;;4880498;29;20231;-85
2024/03/14 12:09:23;;;;;;;2.70;0.80;;;17.20;25.40;;;;;;4920221;29;20226;-85
2024/03/14 12:11:50;;;;;;;0.95;0.95;;;17.30;25.00;;;;;;4897846;29;20226;-84
2024/03/14 12:14:17;;;;;;;1.00;1.00;;;17.20;25.40;;;;;;4917453;29;20215;-84
2024/03/14 12:16:45;;;;;;;1.05;0.98;;;17.20;26.40;;;;;;4903757;29;20229;-84
2024/03/14 12:19:13;;;;;;;1.83;1.00;;;17.10;27.40;;;;;;4919948;29;20209;-85
2024/03/14 12:21:41;;;;;;;0.98;0.93;;;17.20;26.30;;;;;;4901852;29;20213;-85
2024/03/14 12:24:12;;;;;;;1.75;1.08;;;17.10;26.70;;;;;;4884962;29;20203;-87
2024/03/14 12:26:42;;;;;;;0.98;0.98;;;17.20;26.20;;;;;;4916575;29;20214;-84
2024/03/14 12:29:09;;;;;;;1.30;1.20;;;16.90;25.80;;;;;;4917248;29;20238;-84
2024/03/14 12:31:36;;;;;;;1.25;0.80;;;16.60;27.00;;;;;;4903486;29;20203;-84
2024/03/14 12:34:04;;;;;;;0.70;0.70;;;16.80;26.60;;;;;;4917798;29;20210;-84
2024/03/14 12:36:32;;;;;;;0.75;0.70;;;17.00;26.20;;;;;;4910646;29;20210;-84
2024/03/14 12:38:59;;;;;;;0.90;0.90;;;16.90;27.00;;;;;;4920810;29;20230;-85
2024/03/14 12:41:26;;;;;;;0.95;0.90;;;16.90;25.60;;;;;;4919201;29;20198;-84
2024/03/14 12:43:53;;;;;;;2.90;1.27;;;16.70;26.40;;;;;;4905385;29;20203;-85
2024/03/14 12:46:22;;;;;;;1.08;0.90;;;16.80;26.90;;;;;;4895396;29;20254;-84
2024/03/14 12:48:49;;;;;;;2.38;1.77;;;16.80;27.40;;;;;;4903412;29;20210;-84
2024/03/14 12:51:18;;;;;;;0.93;0.77;;;16.80;29.00;;;;;;4903081;29;20203;-85
2024/03/14 12:53:54;;;;;;;1.23;0.98;;;16.90;25.90;;;;;;4918872;29;20209;-84
2024/03/14 12:56:22;;;;;;;1.13;0.90;;;17.20;27.60;;;;;;4889206;29;20654;-85
2024/03/14 12:58:51;;;;;;;1.00;0.90;;;17.20;26.10;;;;;;4878658;29;20214;-84
2024/03/14 13:01:18;;;;;;;1.15;0.93;;;17.30;26.80;;;;;;4903081;29;20203;-84
2024/03/14 13:03:45;;;;;;;2.38;1.00;;;17.30;24.90;;;;;;4901328;29;20217;-86
2024/03/14 13:06:20;;;;;;;2.33;0.98;;;17.60;24.60;;;;;;4886807;29;20214;-84
2024/03/14 13:08:48;;;;;;;2.05;0.90;;;17.10;24.40;;;;;;4883906;29;20317;-84
2024/03/14 13:11:15;;;;;;;1.15;0.95;;;16.90;26.20;;;;;;4901774;29;20207;-85
2024/03/14 13:13:43;;;;;;;1.45;1.00;;;17.10;29.60;;;;;;4886449;29;20211;-84
2024/03/14 13:16:17;;;;;;;0.73;0.73;;;17.10;25.70;;;;;;4890164;29;20218;-83
2024/03/14 13:18:45;;;;;;;1.05;1.00;;;17.20;26.10;;;;;;4891467;29;20198;-84
2024/03/14 13:21:12;;;;;;;4.63;2.88;;;17.00;26.00;;;;;;4916903;29;20203;-85
2024/03/14 13:23:41;;;;;;;8.70;7.80;;;17.30;27.00;;;;;;4886496;29;20777;-91
2024/03/14 13:26:12;;;;;;;4.50;2.42;;;17.40;24.60;;;;;;4899609;29;20215;-84
2024/03/14 13:28:40;;;;;;;2.72;2.25;;;17.50;24.10;;;;;;4903197;29;20275;-86
2024/03/14 13:31:09;;;;;;;2.58;2.22;;;17.50;23.80;;;;;;4887349;29;20207;-85
2024/03/14 13:33:36;;;;;;;1.40;1.20;;;17.60;23.50;;;;;;4886100;29;20199;-85
2024/03/14 13:36:05;;;;;;;2.38;2.10;;;17.60;23.80;;;;;;4898810;29;20219;-92
2024/03/14 13:38:32;;;;;;;1.65;1.55;;;17.80;22.90;;;;;;4895083;29;20621;-83
2024/03/14 13:40:59;;;;;;;2.50;0.85;;;17.90;22.50;;;;;;4894548;29;20195;-83
2024/03/14 13:43:28;;;;;;;1.13;1.08;;;17.70;21.40;;;;;;4897386;29;20285;-83
2024/03/14 13:45:55;;;;;;;0.80;0.80;;;17.50;21.80;;;;;;4899979;29;20199;-83
2024/03/14 13:48:23;;;;;;;2.13;1.05;;;17.80;21.90;;;;;;4905513;29;20227;-83
2024/03/14 13:50:51;;;;;;;1.73;0.88;;;17.70;21.20;;;;;;4901405;29;20211;-84
2024/03/14 13:53:19;;;;;;;1.10;0.90;;;17.70;21.40;;;;;;4917989;29;20661;-84
2024/03/14 13:55:47;;;;;;;0.98;0.88;;;17.70;21.70;;;;;;4890434;29;20234;-83
2024/03/14 13:58:16;;;;;;;1.30;0.82;;;17.60;22.80;;;;;;4880549;29;20325;-83
2024/03/14 14:00:54;;;;;;;0.77;0.77;;;17.80;22.20;;;;;;4915299;29;20661;-84
2024/03/14 14:03:22;;;;;;;1.10;0.98;;;17.80;22.40;;;;;;4889853;29;20199;-83
2024/03/14 14:05:49;;;;;;;1.35;0.85;;;17.50;23.20;;;;;;4896525;29;20203;-84
2024/03/14 14:08:16;;;;;;;2.67;0.80;;;17.40;22.60;;;;;;4898451;29;20693;-85
2024/03/14 14:10:47;;;;;;;0.93;0.60;;;17.40;21.90;;;;;;4877362;29;20207;-84
2024/03/14 14:13:15;;;;;;;1.83;0.65;;;17.20;23.80;;;;;;4893163;29;20207;-85
2024/03/14 14:15:43;;;;;;;0.85;0.63;;;17.10;25.60;;;;;;4895313;29;20577;-83
2024/03/14 14:18:11;;;;;;;0.73;0.73;;;17.00;24.90;;;;;;4894196;29;20208;-85
2024/03/14 14:20:40;;;;;;;0.75;0.75;;;16.90;24.10;;;;;;4892993;29;20222;-84
2024/03/14 14:23:07;;;;;;;0.60;0.60;;;16.70;24.50;;;;;;4890898;29;20663;-84
2024/03/14 14:25:35;;;;;;;2.92;1.30;;;16.80;23.90;;;;;;4899789;29;20309;-84
2024/03/14 14:28:02;;;;;;;2.55;0.98;;;16.90;23.60;;;;;;4898932;29;20704;-84
2024/03/14 14:30:32;;;;;;;2.88;0.90;;;16.80;24.40;;;;;;4880379;29;20199;-85
2024/03/14 14:32:59;;;;;;;1.58;0.77;;;16.80;27.20;;;;;;4898564;29;20199;-87
2024/03/14 14:35:26;;;;;;;0.98;0.70;;;16.90;25.10;;;;;;4914086;29;20202;-88
2024/03/14 14:37:53;;;;;;;0.82;0.82;;;16.90;24.40;;;;;;4879759;29;20245;-83
2024/03/14 14:40:21;;;;;;;1.65;0.80;;;17.00;26.20;;;;;;4896935;29;20199;-85
2024/03/14 14:42:50;;;;;;;2.15;0.90;;;17.10;24.50;;;;;;4895992;29;20298;-84
2024/03/14 14:45:19;;;;;;;0.70;0.70;;;17.10;24.20;;;;;;4894636;29;20329;-84
2024/03/14 14:47:46;;;;;;;3.85;0.98;;;17.20;24.50;;;;;;4915673;29;20677;-84
2024/03/14 14:50:14;;;;;;;1.40;0.98;;;17.20;24.70;;;;;;4870075;29;20215;-85
2024/03/14 14:52:41;;;;;;;0.75;0.68;;;17.30;24.90;;;;;;4896635;29;20198;-84
2024/03/14 14:55:11;;;;;;;1.85;0.77;;;17.30;22.90;;;;;;4889946;29;20203;-83
2024/03/14 14:57:39;;;;;;;1.63;0.60;;;17.30;24.00;;;;;;4890020;29;20254;-83
2024/03/14 15:00:07;;;;;;;3.30;0.55;;;17.30;23.30;;;;;;4891669;29;20662;-83
2024/03/14 15:02:34;;;;;;;0.70;0.70;;;17.30;23.30;;;;;;4895708;29;20206;-84
2024/03/14 15:05:01;;;;;;;1.00;0.80;;;17.00;24.10;;;;;;4903022;29;20273;-84
2024/03/14 15:07:28;;;;;;;2.63;0.90;;;16.70;24.40;;;;;;4882105;29;20221;-84
2024/03/14 15:09:55;;;;;;;2.70;0.68;;;16.60;25.80;;;;;;4903352;29;20206;-84
2024/03/14 15:12:22;;;;;;;1.58;0.50;;;16.50;25.70;;;;;;4893612;29;20213;-84
2024/03/14 15:14:49;;;;;;;0.70;0.70;;;16.40;25.90;;;;;;4877576;29;20216;-83
2024/03/14 15:17:20;;;;;;;0.80;0.70;;;16.40;26.70;;;;;;4899135;29;20241;-84
2024/03/14 15:19:47;;;;;;;1.17;0.70;;;16.50;27.40;;;;;;4881704;29;20205;-84
2024/03/14 15:22:14;;;;;;;1.00;1.00;;;16.50;26.50;;;;;;4901552;29;20289;-85
2024/03/14 15:24:43;;;;;;;0.50;0.50;;;16.50;25.20;;;;;;4890253;29;20207;-84
2024/03/14 15:27:10;;;;;;;0.93;0.70;;;16.50;25.40;;;;;;4891675;29;20207;-83
2024/03/14 15:29:38;;;;;;;1.33;0.60;;;16.60;25.20;;;;;;4891033;29;20270;-84
2024/03/14 15:32:05;;;;;;;0.85;0.85;;;16.50;23.70;;;;;;4889685;29;20203;-84
2024/03/14 15:34:32;;;;;;;1.58;0.47;;;16.50;23.60;;;;;;4891930;29;20207;-84
2024/03/14 15:37:00;;;;;;;0.95;0.70;;;16.60;24.10;;;;;;4894281;29;20289;-83
2024/03/14 15:39:29;;;;;;;0.82;0.75;;;16.70;24.80;;;;;;4904096;29;20209;-83
2024/03/14 15:41:59;;;;;;;0.60;0.60;;;16.70;25.10;;;;;;4872805;29;20204;-83
2024/03/14 15:44:27;;;;;;;3.53;0.70;;;16.50;24.20;;;;;;4904777;29;20199;-83
2024/03/14 15:46:55;;;;;;;0.80;0.80;;;16.50;24.90;;;;;;4889331;29;20199;-83
2024/03/14 15:49:23;;;;;;;0.95;0.73;;;16.60;26.60;;;;;;4879829;29;20226;-84
2024/03/14 15:51:50;;;;;;;0.90;0.90;;;16.80;26.10;;;;;;4887826;29;20234;-85
2024/03/14 15:54:17;;;;;;;0.90;0.90;;;16.70;25.90;;;;;;4892046;29;20207;-86
2024/03/14 15:56:45;;;;;;;1.27;0.70;;;16.70;26.70;;;;;;4886287;29;20592;-86
2024/03/14 15:59:12;;;;;;;3.15;1.27;;;16.70;24.20;;;;;;4897001;29;20301;-89
2024/03/14 16:01:39;;;;;;;0.80;0.80;;;16.60;24.80;;;;;;4880576;29;20209;-87
2024/03/14 16:04:07;;;;;;;4.13;0.85;;;16.60;25.20;;;;;;4910667;29;20203;-88
2024/03/14 16:06:36;;;;;;;0.57;0.57;;;16.40;25.40;;;;;;4878790;29;20239;-88
2024/03/14 16:09:03;;;;;;;0.50;0.50;;;16.30;25.90;;;;;;4889395;29;21508;-89
2024/03/14 16:11:30;;;;;;;2.30;2.05;;;16.20;26.20;;;;;;4875322;29;20209;-88
2024/03/14 16:13:58;;;;;;;19.38;17.38;;;16.10;27.00;;;;;;4863678;29;20207;-87
2024/03/14 16:16:26;;;;;;;2.95;2.28;;;16.00;27.40;;;;;;4912466;29;20202;-86
2024/03/14 16:18:54;;;;;;;3.47;2.80;;;16.00;26.30;;;;;;4889712;29;20207;-88
2024/03/14 16:21:22;;;;;;;1.50;1.00;;;15.90;27.60;;;;;;4911657;29;20221;-85
2024/03/14 16:23:48;;;;;;;1.60;0.90;;;15.90;26.50;;;;;;4877682;29;20246;-84
2024/03/14 16:26:21;;;;;;;1.58;0.90;;;15.70;25.60;;;;;;4892077;29;20215;-84
2024/03/14 16:28:48;;;;;;;2.92;0.77;;;15.60;26.60;;;;;;4879307;29;20258;-84
2024/03/14 16:31:15;;;;;;;1.98;0.90;;;15.60;27.90;;;;;;4888250;29;20244;-84
2024/03/14 16:33:47;;;;;;;0.80;0.80;;;15.40;26.30;;;;;;4897526;29;20207;-84
2024/03/14 16:36:14;;;;;;;0.70;0.70;;;15.30;26.70;;;;;;4900248;29;20206;-84
2024/03/14 16:38:41;;;;;;;0.55;0.55;;;15.10;26.70;;;;;;4895531;29;20294;-86
2024/03/14 16:41:09;;;;;;;1.35;0.77;;;15.10;28.00;;;;;;4898961;29;20203;-84
2024/03/14 16:43:36;;;;;;;1.10;0.90;;;15.10;28.10;;;;;;4898249;29;20572;-85
2024/03/14 16:46:03;;;;;;;1.50;1.00;;;15.00;29.60;;;;;;4897768;29;20202;-84
2024/03/14 16:48:30;;;;;;;2.10;1.15;;;15.00;32.90;;;;;;4881181;29;20233;-84
2024/03/14 16:50:57;;;;;;;1.15;0.90;;;14.80;34.30;;;;;;4898248;29;20476;-84
2024/03/14 16:53:37;;;;;;;1.23;1.05;;;14.70;35.20;;;;;;4881840;29;20215;-84
2024/03/14 16:56:05;;;;;;;2.10;1.15;;;14.70;35.40;;;;;;4891406;29;20215;-84
2024/03/14 16:58:33;;;;;;;3.50;1.00;;;14.70;34.90;;;;;;4894835;29;21106;-84
2024/03/14 17:01:00;;;;;;;3.25;1.13;;;14.60;35.80;;;;;;4893309;29;20194;-87
2024/03/14 17:03:27;;;;;;;3.45;1.20;;;14.50;37.00;;;;;;4903789;29;20206;-87
2024/03/14 17:05:57;;;;;;;4.20;3.40;;;14.30;38.20;;;;;;4900954;29;20226;-85
2024/03/14 17:08:24;;;;;;;2.13;1.70;;;14.20;39.60;;;;;;4904400;29;20234;-84
2024/03/14 17:10:52;;;;;;;2.65;1.40;;;14.10;40.70;;;;;;4882262;29;20633;-86
2024/03/14 17:13:19;;;;;;;3.20;1.30;;;13.90;42.10;;;;;;4897983;29;20214;-84
2024/03/14 17:15:46;;;;;;;3.95;2.78;;;13.80;43.50;;;;;;4884498;29;20207;-86
2024/03/14 17:18:13;;;;;;;5.47;3.97;;;13.70;45.00;;;;;;4898931;29;20214;-84
2024/03/14 17:20:40;;;;;;;5.05;3.08;;;13.60;47.10;;;;;;4881499;29;20229;-86
2024/03/14 17:23:09;;;;;;;3.25;1.40;;;13.50;50.00;;;;;;4887800;29;20210;-84
2024/03/14 17:25:36;;;;;;;2.70;1.40;;;13.50;50.00;;;;;;4915328;29;20219;-85
2024/03/14 17:28:04;;;;;;;5.25;3.78;;;13.40;52.30;;;;;;4887428;29;20222;-86
2024/03/14 17:30:32;;;;;;;6.68;2.17;;;13.30;54.60;;;;;;4918246;29;20262;-86
2024/03/14 17:32:59;;;;;;;6.47;3.35;;;13.20;56.10;;;;;;4903385;29;20207;-85
2024/03/14 17:35:30;;;;;;;3.33;1.40;;;13.10;57.30;;;;;;4901976;29;20542;-87
2024/03/14 17:37:58;;;;;;;2.38;1.40;;;13.10;58.10;;;;;;4867979;29;20214;-86
2024/03/14 17:40:25;;;;;;;3.03;1.80;;;13.00;58.60;;;;;;4913686;29;20234;-84
2024/03/14 17:42:52;;;;;;;3.00;1.90;;;12.90;60.30;;;;;;4894301;29;20207;-86
2024/03/14 17:45:23;;;;;;;5.63;1.75;;;12.90;62.00;;;;;;4887615;29;20206;-86
2024/03/14 17:47:51;;;;;;;3.13;1.83;;;12.90;63.90;;;;;;4895746;29;20278;-86
2024/03/14 17:50:20;;;;;;;3.15;1.92;;;13.00;62.80;;;;;;4912184;29;20289;-84
2024/03/14 17:52:48;;;;;;;2.08;1.60;;;12.90;62.70;;;;;;4900330;29;20293;-85
2024/03/14 17:55:16;;;;;;;8.13;2.00;;;12.80;63.30;;;;;;4904058;29;20230;-85
2024/03/14 17:57:44;;;;;;;3.08;2.08;;;12.80;65.60;;;;;;4880028;29;20230;-84
2024/03/14 18:00:13;;;;;;;3.42;2.00;;;12.70;65.70;;;;;;4900709;29;20237;-84
2024/03/14 18:02:41;;;;;;;8.02;2.00;;;12.70;68.00;;;;;;4902530;29;20202;-84
2024/03/14 18:05:10;;;;;;;2.42;1.92;;;12.60;69.30;;;;;;4902449;29;20632;-84
2024/03/14 18:07:37;;;;;;;2.30;1.83;;;12.50;70.40;;;;;;4903138;29;20693;-85
2024/03/14 18:10:05;;;;;;;3.05;2.03;;;12.50;73.50;;;;;;4889130;29;20218;-83
2024/03/14 18:12:32;;;;;;;5.45;2.42;;;12.40;74.80;;;;;;4898885;29;20653;-83
2024/03/14 18:14:59;;;;;;;3.47;2.25;;;12.30;75.40;;;;;;4904123;29;20206;-84
2024/03/14 18:17:27;;;;;;;5.13;2.50;;;12.30;75.60;;;;;;4906432;29;20209;-83
2024/03/14 18:19:55;;;;;;;3.97;2.65;;;12.20;77.10;;;;;;4905922;29;20224;-87
2024/03/14 18:22:23;;;;;;;3.30;2.60;;;12.20;77.80;;;;;;4883943;29;20810;-83
2024/03/14 18:24:51;;;;;;;5.57;2.65;;;12.20;78.90;;;;;;4867678;29;20647;-84
2024/03/14 18:27:23;;;;;;;6.15;2.75;;;12.10;80.10;;;;;;4880050;29;20214;-85
2024/03/14 18:33:13;;;;;;;5.38;2.53;;;12.10;82.00;;;;;;4908645;29;20190;-85
2024/03/14 18:39:29;;;;;;;3.80;2.50;;;12.00;82.90;;;;;;4899759;29;20198;-85
2024/03/14 18:45:18;;;;;;;8.52;3.80;;;11.80;84.80;;;;;;4899488;29;20203;-86
2024/03/14 18:55:31;;;;;;;12.45;4.22;;;11.70;88.70;;;;;;4917621;29;20246;-87
2024/03/14 19:01:38;;;;;;;8.52;3.85;;;11.50;90.60;;;;;;4917651;29;20217;-84
2024/03/14 19:07:29;;;;;;;6.63;3.80;;;11.40;90.90;;;;;;4918074;29;20310;-86
2024/03/14 19:09:56;;;;;;;4.40;3.53;;;11.40;91.30;;;;;;4885853;29;20561;-86
2024/03/14 19:12:24;;;;;;;9.10;4.50;;;11.40;91.50;;;;;;4886350;29;20202;-91
2024/03/14 19:18:54;;;;;;;5.90;3.15;;;11.30;91.50;;;;;;4918036;29;20641;-85
2024/03/14 20:29:29;;;;;;;3.58;2.97;;;9.90;95.90;;;;;;5772941;23;20235;-84
